createdAt,value
2018-08-22T00:00:33.898Z,0.00
2018-08-22T00:01:33.920Z,0.00
2018-08-22T00:02:33.904Z,0.00
2018-08-22T00:03:33.908Z,0.00
2018-08-22T00:04:33.910Z,0.00
2018-08-22T00:05:33.914Z,0.00
2018-08-22T00:06:33.915Z,0.00
2018-08-22T00:07:33.919Z,0.00
2018-08-22T00:08:33.923Z,0.00
2018-08-22T00:09:33.925Z,0.00
2018-08-22T00:10:33.929Z,0.00
2018-08-22T00:11:33.931Z,0.00
2018-08-22T00:12:33.935Z,0.00
2018-08-22T00:13:33.938Z,0.00
2018-08-22T00:14:33.939Z,0.00
2018-08-22T00:15:33.944Z,0.00
2018-08-22T00:16:33.946Z,0.00
2018-08-22T00:17:33.950Z,0.00
2018-08-22T00:18:33.951Z,0.00
2018-08-22T00:19:33.955Z,0.00
2018-08-22T00:20:33.959Z,0.00
2018-08-22T00:21:33.961Z,0.00
2018-08-22T00:22:34.010Z,0.00
2018-08-22T00:23:33.967Z,0.00
2018-08-22T00:24:33.970Z,0.00
2018-08-22T00:25:33.972Z,0.00
2018-08-22T00:26:33.974Z,0.00
2018-08-22T00:27:33.978Z,0.00
2018-08-22T00:28:33.981Z,0.00
2018-08-22T00:29:33.985Z,0.00
2018-08-22T00:30:33.987Z,0.00
2018-08-22T00:31:33.989Z,0.00
2018-08-22T00:32:33.992Z,0.00
2018-08-22T00:33:33.996Z,0.00
2018-08-22T00:34:33.997Z,0.00
2018-08-22T00:35:34.001Z,0.00
2018-08-22T00:36:34.004Z,0.00
2018-08-22T00:37:34.006Z,0.00
2018-08-22T00:38:34.009Z,0.00
2018-08-22T00:39:34.012Z,0.00
2018-08-22T00:40:34.015Z,0.00
2018-08-22T00:41:34.018Z,0.00
2018-08-22T00:42:34.021Z,0.00
2018-08-22T00:43:34.024Z,0.00
2018-08-22T00:44:34.029Z,0.00
2018-08-22T00:45:34.029Z,0.00
2018-08-22T00:46:34.031Z,0.00
2018-08-22T00:47:34.035Z,0.00
2018-08-22T00:48:34.036Z,0.00
2018-08-22T00:49:34.040Z,0.00
2018-08-22T00:50:34.042Z,0.00
2018-08-22T00:51:34.046Z,0.00
2018-08-22T00:52:34.052Z,0.00
2018-08-22T00:53:34.052Z,0.00
2018-08-22T00:54:34.055Z,0.00
2018-08-22T00:55:34.060Z,0.00
2018-08-22T00:56:34.062Z,0.00
2018-08-22T00:57:34.064Z,0.00
2018-08-22T00:58:34.070Z,0.00
2018-08-22T00:59:34.070Z,0.00
2018-08-22T01:00:34.073Z,0.00
2018-08-22T01:01:34.076Z,0.00
2018-08-22T01:02:34.078Z,0.00
2018-08-22T01:03:34.082Z,0.00
2018-08-22T01:04:34.087Z,0.00
2018-08-22T01:05:34.088Z,0.00
2018-08-22T01:06:34.090Z,0.00
2018-08-22T01:07:34.093Z,0.00
2018-08-22T01:08:34.097Z,0.00
2018-08-22T01:09:34.098Z,0.00
2018-08-22T01:10:34.101Z,0.00
2018-08-22T01:11:34.103Z,0.00
2018-08-22T01:12:34.109Z,0.00
2018-08-22T01:13:34.116Z,0.00
2018-08-22T01:14:34.113Z,0.00
2018-08-22T01:15:34.117Z,0.00
2018-08-22T01:16:34.119Z,0.00
2018-08-22T01:17:34.122Z,0.00
2018-08-22T01:18:34.124Z,0.00
2018-08-22T01:19:34.129Z,0.00
2018-08-22T01:20:34.130Z,0.00
2018-08-22T01:21:34.135Z,0.00
2018-08-22T01:22:34.137Z,0.00
2018-08-22T01:23:34.140Z,0.00
2018-08-22T01:24:34.144Z,0.00
2018-08-22T01:25:34.146Z,0.00
2018-08-22T01:26:34.150Z,0.00
2018-08-22T01:27:34.151Z,0.00
2018-08-22T01:28:34.156Z,0.00
2018-08-22T01:29:34.158Z,0.00
2018-08-22T01:30:34.161Z,0.00
2018-08-22T01:31:34.163Z,0.00
2018-08-22T01:32:34.167Z,0.00
2018-08-22T01:33:34.171Z,0.00
2018-08-22T01:34:34.172Z,0.00
2018-08-22T01:35:34.176Z,0.00
2018-08-22T01:36:34.181Z,0.00
2018-08-22T01:37:34.185Z,0.00
2018-08-22T01:38:34.186Z,0.00
2018-08-22T01:39:34.187Z,0.00
2018-08-22T01:40:34.192Z,0.00
2018-08-22T01:41:34.194Z,0.00
2018-08-22T01:42:34.198Z,0.00
2018-08-22T01:43:34.199Z,0.00
2018-08-22T01:44:34.203Z,0.00
2018-08-22T01:45:34.208Z,0.00
2018-08-22T01:46:34.210Z,0.00
2018-08-22T01:47:34.214Z,0.00
2018-08-22T01:48:34.215Z,0.00
2018-08-22T01:49:34.219Z,0.00
2018-08-22T01:50:34.225Z,0.00
2018-08-22T01:51:34.225Z,0.00
2018-08-22T01:52:34.228Z,0.00
2018-08-22T01:53:34.229Z,0.00
2018-08-22T01:54:34.234Z,0.00
2018-08-22T01:55:34.235Z,0.00
2018-08-22T01:56:34.239Z,0.00
2018-08-22T01:57:34.243Z,0.00
2018-08-22T01:58:34.247Z,0.00
2018-08-22T01:59:34.249Z,0.00
2018-08-22T02:00:34.252Z,0.00
2018-08-22T02:01:34.254Z,0.00
2018-08-22T02:02:34.257Z,0.00
2018-08-22T02:03:34.261Z,0.00
2018-08-22T02:04:34.263Z,0.00
2018-08-22T02:05:34.266Z,0.00
2018-08-22T02:06:34.268Z,0.00
2018-08-22T02:07:34.272Z,0.00
2018-08-22T02:08:34.276Z,0.00
2018-08-22T02:09:34.278Z,0.00
2018-08-22T02:10:34.281Z,0.00
2018-08-22T02:11:34.283Z,0.00
2018-08-22T02:12:34.290Z,0.00
2018-08-22T02:13:34.293Z,0.00
2018-08-22T02:14:34.292Z,0.00
2018-08-22T02:15:34.295Z,0.00
2018-08-22T02:16:34.298Z,0.00
2018-08-22T02:17:34.301Z,0.00
2018-08-22T02:18:34.302Z,0.00
2018-08-22T02:19:34.307Z,0.00
2018-08-22T02:20:34.311Z,0.00
2018-08-22T02:21:34.314Z,0.00
2018-08-22T02:22:34.315Z,0.00
2018-08-22T02:23:34.318Z,0.00
2018-08-22T02:24:34.322Z,0.00
2018-08-22T02:25:34.324Z,0.00
2018-08-22T02:26:34.327Z,0.00
2018-08-22T02:27:34.329Z,0.00
2018-08-22T02:28:34.333Z,0.00
2018-08-22T02:29:34.335Z,0.00
2018-08-22T02:30:34.338Z,0.00
2018-08-22T02:31:34.341Z,0.00
2018-08-22T02:32:34.344Z,0.00
2018-08-22T02:33:34.350Z,0.00
2018-08-22T02:34:34.348Z,0.00
2018-08-22T02:35:34.351Z,0.00
2018-08-22T02:36:34.354Z,0.00
2018-08-22T02:37:34.358Z,0.00
2018-08-22T02:38:34.361Z,0.00
2018-08-22T02:39:34.363Z,0.00
2018-08-22T02:40:34.367Z,0.00
2018-08-22T02:41:34.369Z,0.00
2018-08-22T02:42:34.372Z,0.00
2018-08-22T02:43:34.373Z,0.00
2018-08-22T02:44:34.378Z,0.00
2018-08-22T02:45:34.379Z,0.00
2018-08-22T02:46:34.383Z,0.00
2018-08-22T02:47:34.384Z,0.00
2018-08-22T02:48:34.388Z,0.00
2018-08-22T02:49:34.391Z,0.00
2018-08-22T02:50:34.392Z,0.00
2018-08-22T02:51:34.396Z,0.00
2018-08-22T02:52:34.397Z,0.00
2018-08-22T02:53:34.402Z,0.00
2018-08-22T02:54:34.404Z,0.00
2018-08-22T02:55:34.406Z,0.00
2018-08-22T02:56:34.408Z,0.00
2018-08-22T02:57:34.412Z,0.00
2018-08-22T02:58:34.413Z,0.00
2018-08-22T02:59:34.417Z,0.00
2018-08-22T03:00:34.420Z,0.00
2018-08-22T03:01:34.422Z,0.00
2018-08-22T03:02:34.425Z,0.00
2018-08-22T03:03:34.427Z,0.00
2018-08-22T03:04:34.430Z,0.00
2018-08-22T03:05:34.433Z,0.00
2018-08-22T03:06:34.434Z,0.00
2018-08-22T03:07:34.438Z,0.00
2018-08-22T03:08:34.441Z,0.00
2018-08-22T03:09:34.443Z,0.00
2018-08-22T03:10:34.444Z,0.00
2018-08-22T03:11:34.449Z,0.00
2018-08-22T03:12:34.450Z,0.00
2018-08-22T03:13:34.454Z,0.00
2018-08-22T03:14:34.455Z,0.00
2018-08-22T03:15:34.460Z,0.00
2018-08-22T03:16:34.461Z,0.00
2018-08-22T03:17:34.464Z,0.00
2018-08-22T03:18:34.466Z,0.00
2018-08-22T03:19:34.468Z,0.00
2018-08-22T03:20:34.470Z,0.00
2018-08-22T03:21:34.473Z,0.00
2018-08-22T03:22:34.476Z,0.00
2018-08-22T03:23:34.485Z,0.00
2018-08-22T03:24:34.481Z,0.00
2018-08-22T03:25:34.483Z,0.00
2018-08-22T03:26:34.485Z,0.00
2018-08-22T03:27:34.488Z,0.00
2018-08-22T03:28:34.491Z,0.00
2018-08-22T03:29:34.494Z,0.00
2018-08-22T03:30:34.497Z,0.00
2018-08-22T03:31:34.499Z,0.00
2018-08-22T03:32:34.502Z,0.00
2018-08-22T03:33:34.505Z,0.00
2018-08-22T03:34:34.505Z,0.00
2018-08-22T03:35:34.509Z,0.00
2018-08-22T03:36:34.511Z,0.00
2018-08-22T03:37:34.515Z,0.00
2018-08-22T03:38:34.515Z,0.00
2018-08-22T03:39:34.519Z,0.00
2018-08-22T03:40:34.521Z,0.00
2018-08-22T03:41:34.523Z,0.00
2018-08-22T03:42:34.529Z,0.00
2018-08-22T03:43:34.529Z,0.00
2018-08-22T03:44:34.532Z,0.00
2018-08-22T03:45:34.533Z,0.00
2018-08-22T03:46:34.538Z,0.00
2018-08-22T03:47:34.537Z,0.00
2018-08-22T03:48:34.541Z,0.00
2018-08-22T03:49:34.544Z,0.00
2018-08-22T03:50:34.546Z,0.00
2018-08-22T03:51:34.548Z,0.00
2018-08-22T03:52:34.551Z,0.00
2018-08-22T03:53:34.553Z,0.00
2018-08-22T03:54:34.555Z,0.00
2018-08-22T03:55:34.556Z,0.00
2018-08-22T03:56:34.559Z,0.00
2018-08-22T03:57:34.562Z,0.00
2018-08-22T03:58:34.564Z,0.00
2018-08-22T03:59:34.567Z,0.00
2018-08-22T04:00:34.576Z,0.00
2018-08-22T04:01:34.572Z,0.00
2018-08-22T04:02:34.573Z,0.00
2018-08-22T04:03:34.576Z,0.00
2018-08-22T04:04:34.578Z,0.00
2018-08-22T04:05:34.581Z,0.00
2018-08-22T04:06:34.581Z,0.00
2018-08-22T04:07:34.587Z,0.00
2018-08-22T04:08:34.589Z,0.00
2018-08-22T04:09:34.590Z,0.00
2018-08-22T04:10:34.591Z,0.00
2018-08-22T04:11:34.595Z,0.00
2018-08-22T04:12:34.597Z,0.00
2018-08-22T04:13:34.599Z,0.00
2018-08-22T04:14:34.600Z,0.00
2018-08-22T04:15:34.604Z,0.00
2018-08-22T04:16:34.605Z,0.00
2018-08-22T04:17:34.609Z,0.00
2018-08-22T04:18:34.609Z,0.00
2018-08-22T04:19:34.614Z,0.00
2018-08-22T04:20:34.615Z,0.00
2018-08-22T04:21:34.617Z,0.00
2018-08-22T04:22:34.623Z,0.00
2018-08-22T04:23:34.621Z,0.00
2018-08-22T04:24:34.624Z,0.00
2018-08-22T04:25:34.625Z,5.63
2018-08-22T04:26:34.629Z,5.63
2018-08-22T04:27:34.632Z,5.63
2018-08-22T04:28:34.634Z,5.63
2018-08-22T04:29:34.646Z,5.63
2018-08-22T04:30:34.637Z,5.63
2018-08-22T04:31:34.641Z,5.63
2018-08-22T04:32:34.642Z,5.63
2018-08-22T04:33:34.644Z,5.63
2018-08-22T04:34:34.646Z,5.63
2018-08-22T04:35:34.650Z,5.63
2018-08-22T04:36:34.654Z,5.63
2018-08-22T04:37:34.655Z,11.25
2018-08-22T04:38:34.655Z,11.25
2018-08-22T04:39:34.659Z,11.25
2018-08-22T04:40:34.661Z,11.25
2018-08-22T04:41:34.694Z,11.25
2018-08-22T04:42:34.665Z,11.25
2018-08-22T04:43:34.667Z,11.25
2018-08-22T04:44:34.669Z,11.25
2018-08-22T04:45:34.673Z,11.25
2018-08-22T04:46:34.674Z,11.25
2018-08-22T04:47:34.678Z,11.25
2018-08-22T04:48:34.686Z,11.25
2018-08-22T04:49:34.683Z,11.25
2018-08-22T04:50:34.684Z,16.88
2018-08-22T04:51:34.688Z,16.88
2018-08-22T04:52:34.690Z,16.88
2018-08-22T04:53:34.692Z,16.88
2018-08-22T04:54:34.694Z,22.50
2018-08-22T04:55:34.696Z,22.50
2018-08-22T04:56:34.698Z,28.13
2018-08-22T04:57:34.702Z,28.13
2018-08-22T04:58:34.703Z,33.75
2018-08-22T04:59:34.706Z,33.75
2018-08-22T05:00:34.707Z,39.38
2018-08-22T05:01:34.711Z,45.00
2018-08-22T05:02:34.714Z,45.00
2018-08-22T05:03:34.716Z,45.00
2018-08-22T05:04:34.719Z,50.63
2018-08-22T05:05:34.720Z,50.63
2018-08-22T05:06:34.722Z,56.25
2018-08-22T05:07:34.728Z,56.25
2018-08-22T05:08:34.728Z,56.25
2018-08-22T05:09:34.731Z,56.25
2018-08-22T05:10:34.731Z,61.88
2018-08-22T05:11:34.736Z,61.88
2018-08-22T05:12:34.737Z,67.50
2018-08-22T05:13:34.740Z,67.50
2018-08-22T05:14:34.743Z,67.50
2018-08-22T05:15:34.745Z,73.13
2018-08-22T05:16:34.748Z,73.13
2018-08-22T05:17:34.751Z,78.75
2018-08-22T05:18:34.751Z,78.75
2018-08-22T05:19:34.754Z,78.75
2018-08-22T05:20:34.758Z,78.75
2018-08-22T05:21:34.760Z,84.38
2018-08-22T05:22:34.763Z,84.38
2018-08-22T05:23:34.763Z,90.00
2018-08-22T05:24:34.794Z,95.63
2018-08-22T05:25:34.771Z,95.63
2018-08-22T05:26:34.772Z,101.25
2018-08-22T05:27:34.775Z,101.25
2018-08-22T05:28:34.778Z,106.88
2018-08-22T05:29:34.782Z,106.88
2018-08-22T05:30:34.783Z,112.50
2018-08-22T05:31:34.786Z,112.50
2018-08-22T05:32:34.787Z,118.13
2018-08-22T05:33:34.791Z,123.75
2018-08-22T05:34:34.792Z,129.38
2018-08-22T05:35:34.797Z,129.38
2018-08-22T05:36:34.799Z,129.38
2018-08-22T05:37:34.802Z,129.38
2018-08-22T05:38:34.803Z,129.38
2018-08-22T05:39:34.807Z,135.00
2018-08-22T05:40:34.872Z,135.00
2018-08-22T05:41:34.813Z,135.00
2018-08-22T05:42:34.815Z,129.38
2018-08-22T05:43:34.818Z,129.38
2018-08-22T05:44:34.821Z,129.38
2018-08-22T05:45:34.822Z,129.38
2018-08-22T05:46:34.827Z,135.00
2018-08-22T05:47:34.828Z,146.25
2018-08-22T05:48:34.831Z,157.50
2018-08-22T05:49:34.836Z,168.75
2018-08-22T05:50:34.836Z,174.38
2018-08-22T05:51:34.840Z,180.00
2018-08-22T05:52:34.845Z,185.63
2018-08-22T05:53:34.847Z,185.63
2018-08-22T05:54:34.849Z,185.63
2018-08-22T05:55:34.852Z,185.63
2018-08-22T05:56:34.855Z,180.00
2018-08-22T05:57:34.876Z,185.63
2018-08-22T05:58:34.861Z,191.25
2018-08-22T05:59:34.862Z,202.50
2018-08-22T06:00:34.867Z,213.75
2018-08-22T06:01:34.870Z,230.63
2018-08-22T06:02:34.872Z,253.13
2018-08-22T06:03:34.875Z,270.00
2018-08-22T06:04:34.879Z,286.88
2018-08-22T06:05:34.883Z,292.50
2018-08-22T06:06:34.885Z,286.88
2018-08-22T06:07:34.887Z,286.88
2018-08-22T06:08:34.891Z,281.25
2018-08-22T06:09:34.895Z,281.25
2018-08-22T06:10:34.897Z,281.25
2018-08-22T06:11:34.901Z,286.88
2018-08-22T06:12:34.904Z,281.25
2018-08-22T06:13:34.906Z,275.63
2018-08-22T06:14:34.911Z,264.38
2018-08-22T06:15:34.928Z,247.50
2018-08-22T06:16:34.917Z,230.63
2018-08-22T06:17:34.926Z,213.75
2018-08-22T06:18:34.923Z,196.88
2018-08-22T06:19:34.928Z,196.88
2018-08-22T06:20:34.933Z,202.50
2018-08-22T06:21:34.935Z,208.13
2018-08-22T06:22:34.939Z,208.13
2018-08-22T06:23:34.943Z,219.38
2018-08-22T06:24:34.947Z,236.25
2018-08-22T06:25:34.962Z,247.50
2018-08-22T06:26:34.953Z,247.50
2018-08-22T06:27:34.959Z,258.75
2018-08-22T06:28:34.962Z,258.75
2018-08-22T06:29:34.966Z,264.38
2018-08-22T06:30:34.969Z,270.00
2018-08-22T06:31:34.972Z,270.00
2018-08-22T06:32:34.978Z,270.00
2018-08-22T06:33:34.982Z,270.00
2018-08-22T06:34:34.985Z,275.63
2018-08-22T06:35:34.989Z,281.25
2018-08-22T06:36:34.993Z,275.63
2018-08-22T06:37:34.997Z,275.63
2018-08-22T06:38:34.999Z,275.63
2018-08-22T06:39:35.004Z,258.75
2018-08-22T06:40:35.010Z,241.88
2018-08-22T06:41:35.020Z,230.63
2018-08-22T06:42:35.017Z,225.00
2018-08-22T06:43:35.024Z,208.13
2018-08-22T06:44:35.023Z,196.88
2018-08-22T06:45:35.030Z,196.88
2018-08-22T06:46:35.032Z,196.88
2018-08-22T06:47:35.035Z,208.13
2018-08-22T06:48:35.041Z,225.00
2018-08-22T06:49:35.044Z,258.75
2018-08-22T06:50:35.050Z,292.50
2018-08-22T06:51:35.052Z,326.25
2018-08-22T06:52:35.056Z,354.38
2018-08-22T06:53:35.061Z,376.88
2018-08-22T06:54:35.063Z,393.75
2018-08-22T06:55:35.070Z,410.63
2018-08-22T06:56:35.072Z,421.88
2018-08-22T06:57:35.081Z,427.50
2018-08-22T06:58:35.080Z,427.50
2018-08-22T06:59:35.093Z,433.13
2018-08-22T07:00:35.090Z,427.50
2018-08-22T07:01:35.093Z,427.50
2018-08-22T07:02:35.098Z,427.50
2018-08-22T07:03:35.101Z,433.13
2018-08-22T07:04:35.105Z,433.13
2018-08-22T07:05:35.111Z,433.13
2018-08-22T07:06:35.114Z,433.13
2018-08-22T07:07:35.122Z,433.13
2018-08-22T07:08:35.124Z,433.13
2018-08-22T07:09:35.127Z,433.13
2018-08-22T07:10:35.132Z,433.13
2018-08-22T07:11:35.140Z,433.13
2018-08-22T07:12:35.140Z,438.75
2018-08-22T07:13:35.145Z,433.13
2018-08-22T07:14:35.149Z,433.13
2018-08-22T07:15:35.153Z,433.13
2018-08-22T07:16:35.159Z,433.13
2018-08-22T07:17:35.162Z,433.13
2018-08-22T07:18:35.166Z,438.75
2018-08-22T07:19:35.171Z,438.75
2018-08-22T07:20:35.175Z,438.75
2018-08-22T07:21:35.180Z,438.75
2018-08-22T07:22:35.185Z,438.75
2018-08-22T07:23:35.190Z,438.75
2018-08-22T07:24:35.194Z,438.75
2018-08-22T07:25:35.200Z,438.75
2018-08-22T07:26:35.203Z,438.75
2018-08-22T07:27:35.213Z,438.75
2018-08-22T07:28:35.213Z,438.75
2018-08-22T07:29:35.218Z,438.75
2018-08-22T07:30:35.221Z,438.75
2018-08-22T07:31:35.227Z,438.75
2018-08-22T07:32:35.234Z,438.75
2018-08-22T07:33:35.236Z,438.75
2018-08-22T07:34:35.241Z,438.75
2018-08-22T07:35:35.255Z,444.38
2018-08-22T07:36:35.250Z,444.38
2018-08-22T07:37:35.256Z,444.38
2018-08-22T07:38:35.260Z,450.00
2018-08-22T07:39:35.268Z,450.00
2018-08-22T07:40:35.270Z,450.00
2018-08-22T07:41:35.275Z,450.00
2018-08-22T07:42:35.278Z,450.00
2018-08-22T07:43:35.283Z,461.25
2018-08-22T07:44:35.289Z,461.25
2018-08-22T07:45:35.293Z,461.25
2018-08-22T07:46:35.298Z,472.50
2018-08-22T07:47:35.304Z,472.50
2018-08-22T07:48:35.311Z,478.13
2018-08-22T07:49:35.315Z,483.75
2018-08-22T07:50:35.320Z,483.75
2018-08-22T07:51:35.324Z,483.75
2018-08-22T07:52:35.354Z,483.75
2018-08-22T07:53:35.336Z,483.75
2018-08-22T07:54:35.388Z,489.38
2018-08-22T07:55:35.345Z,489.38
2018-08-22T07:56:35.350Z,489.38
2018-08-22T07:57:35.356Z,489.38
2018-08-22T07:58:35.359Z,495.00
2018-08-22T07:59:35.364Z,500.63
2018-08-22T08:00:35.372Z,506.25
2018-08-22T08:01:35.377Z,511.88
2018-08-22T08:02:35.380Z,511.88
2018-08-22T08:03:35.387Z,517.50
2018-08-22T08:04:35.392Z,517.50
2018-08-22T08:05:35.469Z,517.50
2018-08-22T08:06:35.402Z,523.13
2018-08-22T08:07:35.409Z,540.00
2018-08-22T08:08:35.436Z,540.00
2018-08-22T08:09:35.423Z,551.25
2018-08-22T08:10:35.425Z,568.13
2018-08-22T08:11:35.430Z,573.75
2018-08-22T08:12:35.435Z,579.38
2018-08-22T08:13:35.442Z,579.38
2018-08-22T08:14:35.448Z,590.63
2018-08-22T08:15:35.455Z,590.63
2018-08-22T08:16:35.458Z,607.50
2018-08-22T08:17:35.465Z,916.88
2018-08-22T08:18:35.469Z,1929.38
2018-08-22T08:19:35.475Z,2823.75
2018-08-22T08:20:35.481Z,2863.13
2018-08-22T08:21:35.488Z,2891.25
2018-08-22T08:22:35.494Z,2728.13
2018-08-22T08:23:35.513Z,2812.50
2018-08-22T08:24:35.508Z,2818.13
2018-08-22T08:25:35.516Z,2953.13
2018-08-22T08:26:35.523Z,2874.38
2018-08-22T08:27:35.533Z,2953.13
2018-08-22T08:28:35.541Z,2964.38
2018-08-22T08:29:35.551Z,2998.13
2018-08-22T08:30:35.600Z,2981.25
2018-08-22T08:31:35.569Z,2840.63
2018-08-22T08:32:35.580Z,3155.63
2018-08-22T08:33:35.590Z,3003.75
2018-08-22T08:34:35.600Z,3009.38
2018-08-22T08:35:35.662Z,2373.75
2018-08-22T08:36:35.623Z,2913.75
2018-08-22T08:37:35.636Z,2896.88
2018-08-22T08:38:35.668Z,2716.88
2018-08-22T08:39:35.659Z,2953.13
2018-08-22T08:40:35.671Z,3065.63
2018-08-22T08:41:35.740Z,3082.50
2018-08-22T08:42:35.697Z,3060.00
2018-08-22T08:43:35.711Z,3082.50
2018-08-22T08:44:35.727Z,2998.13
2018-08-22T08:45:35.739Z,2925.00
2018-08-22T08:46:35.751Z,2958.75
2018-08-22T08:47:35.767Z,3031.88
2018-08-22T08:48:35.786Z,2970.00
2018-08-22T08:49:36.021Z,2874.38
2018-08-22T08:50:35.809Z,2880.00
2018-08-22T08:51:35.825Z,3009.38
2018-08-22T08:52:35.840Z,3071.25
2018-08-22T08:53:35.855Z,3060.00
2018-08-22T08:54:35.869Z,3054.38
2018-08-22T08:55:35.885Z,3054.38
2018-08-22T08:56:35.901Z,2998.13
2018-08-22T08:57:35.916Z,2998.13
2018-08-22T08:58:35.931Z,2941.88
2018-08-22T08:59:35.947Z,2941.88
2018-08-22T09:00:35.963Z,3060.00
2018-08-22T09:01:35.979Z,3009.38
2018-08-22T09:02:36.024Z,2896.88
2018-08-22T09:03:36.010Z,2953.13
2018-08-22T09:04:36.028Z,2981.25
2018-08-22T09:05:36.043Z,3026.25
2018-08-22T09:06:36.143Z,2964.38
2018-08-22T09:07:36.076Z,2851.88
2018-08-22T09:08:36.092Z,2705.63
2018-08-22T09:09:36.107Z,2818.13
2018-08-22T09:10:36.174Z,2677.50
2018-08-22T09:11:36.140Z,2857.50
2018-08-22T09:12:36.156Z,2632.50
2018-08-22T09:13:36.173Z,2233.13
2018-08-22T09:14:36.188Z,1946.25
2018-08-22T09:15:36.277Z,2829.38
2018-08-22T09:16:36.223Z,2604.38
2018-08-22T09:17:36.249Z,2441.25
2018-08-22T09:18:36.252Z,2649.38
2018-08-22T09:19:36.268Z,2053.13
2018-08-22T09:20:36.284Z,2334.38
2018-08-22T09:21:36.383Z,1985.63
2018-08-22T09:22:36.315Z,2317.50
2018-08-22T09:23:36.332Z,1788.75
2018-08-22T09:24:36.349Z,1372.50
2018-08-22T09:25:36.365Z,1541.25
2018-08-22T09:26:36.380Z,1389.38
2018-08-22T09:27:36.396Z,1631.25
2018-08-22T09:28:36.415Z,1355.63
2018-08-22T09:29:36.485Z,1164.38
2018-08-22T09:30:36.442Z,1119.38
2018-08-22T09:31:36.459Z,1310.63
2018-08-22T09:32:36.474Z,1440.00
2018-08-22T09:33:36.513Z,2002.50
2018-08-22T09:34:36.507Z,2334.38
2018-08-22T09:35:36.580Z,2733.75
2018-08-22T09:36:36.581Z,2739.38
2018-08-22T09:37:36.553Z,2328.75
2018-08-22T09:38:36.564Z,2131.88
2018-08-22T09:39:36.614Z,1220.63
2018-08-22T09:40:36.594Z,2424.38
2018-08-22T09:41:36.611Z,1800.00
2018-08-22T09:42:36.625Z,2373.75
2018-08-22T09:43:36.640Z,2053.13
2018-08-22T09:44:36.655Z,1434.38
2018-08-22T09:45:36.670Z,1642.50
2018-08-22T09:46:36.705Z,2548.13
2018-08-22T09:47:36.730Z,2205.00
2018-08-22T09:48:36.714Z,2345.63
2018-08-22T09:49:36.730Z,2126.25
2018-08-22T09:50:36.745Z,2081.25
2018-08-22T09:51:36.760Z,1951.88
2018-08-22T09:52:36.776Z,2058.75
2018-08-22T09:53:36.790Z,2278.13
2018-08-22T09:54:36.890Z,2356.88
2018-08-22T09:55:36.821Z,2385.00
2018-08-22T09:56:36.835Z,2244.38
2018-08-22T09:57:36.850Z,2373.75
2018-08-22T09:58:36.871Z,2328.75
2018-08-22T09:59:36.880Z,2435.63
2018-08-22T10:00:36.966Z,2351.25
2018-08-22T10:01:36.911Z,2435.63
2018-08-22T10:02:36.926Z,2193.75
2018-08-22T10:03:36.943Z,2261.25
2018-08-22T10:04:36.958Z,2250.00
2018-08-22T10:05:36.972Z,2216.25
2018-08-22T10:06:37.108Z,2165.63
2018-08-22T10:07:37.003Z,2272.50
2018-08-22T10:08:37.019Z,2205.00
2018-08-22T10:09:37.034Z,2328.75
2018-08-22T10:10:37.048Z,2323.13
2018-08-22T10:11:37.064Z,2323.13
2018-08-22T10:12:37.078Z,2413.13
2018-08-22T10:13:37.095Z,2576.25
2018-08-22T10:14:37.107Z,2430.00
2018-08-22T10:15:37.123Z,2300.63
2018-08-22T10:16:37.138Z,2531.25
2018-08-22T10:17:37.155Z,2722.50
2018-08-22T10:18:37.168Z,2570.63
2018-08-22T10:19:37.205Z,3948.75
2018-08-22T10:20:37.199Z,4556.25
2018-08-22T10:21:37.216Z,2784.38
2018-08-22T10:22:37.230Z,1164.38
2018-08-22T10:23:37.244Z,1046.25
2018-08-22T10:24:37.261Z,1001.25
2018-08-22T10:25:37.285Z,933.75
2018-08-22T10:26:37.385Z,888.75
2018-08-22T10:27:37.306Z,849.38
2018-08-22T10:28:37.326Z,821.25
2018-08-22T10:29:37.338Z,798.75
2018-08-22T10:30:37.351Z,810.00
2018-08-22T10:31:37.366Z,849.38
2018-08-22T10:32:37.438Z,843.75
2018-08-22T10:33:37.397Z,815.63
2018-08-22T10:34:37.418Z,810.00
2018-08-22T10:35:37.428Z,781.88
2018-08-22T10:36:37.442Z,787.50
2018-08-22T10:37:37.458Z,753.75
2018-08-22T10:38:37.499Z,776.25
2018-08-22T10:39:37.541Z,826.88
2018-08-22T10:40:37.503Z,821.25
2018-08-22T10:41:37.545Z,821.25
2018-08-22T10:42:37.532Z,759.38
2018-08-22T10:43:37.547Z,742.50
2018-08-22T10:44:37.562Z,736.88
2018-08-22T10:45:37.584Z,742.50
2018-08-22T10:46:37.590Z,714.38
2018-08-22T10:47:37.604Z,731.25
2018-08-22T10:48:37.619Z,765.00
2018-08-22T10:49:37.685Z,742.50
2018-08-22T10:50:37.677Z,725.63
2018-08-22T10:51:37.662Z,708.75
2018-08-22T10:52:37.676Z,680.63
2018-08-22T10:53:37.689Z,658.13
2018-08-22T10:54:37.703Z,630.00
2018-08-22T10:55:37.717Z,658.13
2018-08-22T10:56:37.731Z,675.00
2018-08-22T10:57:37.745Z,630.00
2018-08-22T10:58:37.760Z,646.88
2018-08-22T10:59:37.773Z,669.38
2018-08-22T11:00:37.787Z,686.25
2018-08-22T11:01:37.804Z,663.75
2018-08-22T11:02:37.816Z,742.50
2018-08-22T11:03:37.825Z,770.63
2018-08-22T11:04:37.840Z,759.38
2018-08-22T11:05:37.855Z,731.25
2018-08-22T11:06:37.870Z,697.50
2018-08-22T11:07:37.880Z,624.38
2018-08-22T11:08:37.892Z,618.75
2018-08-22T11:09:37.906Z,646.88
2018-08-22T11:10:37.919Z,635.63
2018-08-22T11:11:37.934Z,613.13
2018-08-22T11:12:37.947Z,607.50
2018-08-22T11:13:37.962Z,613.13
2018-08-22T11:14:37.972Z,562.50
2018-08-22T11:15:38.036Z,613.13
2018-08-22T11:16:38.000Z,568.13
2018-08-22T11:17:38.012Z,562.50
2018-08-22T11:18:38.025Z,562.50
2018-08-22T11:19:38.037Z,585.00
2018-08-22T11:20:38.050Z,545.63
2018-08-22T11:21:38.062Z,540.00
2018-08-22T11:22:38.076Z,556.88
2018-08-22T11:23:38.089Z,528.75
2018-08-22T11:24:38.100Z,551.25
2018-08-22T11:25:38.114Z,540.00
2018-08-22T11:26:38.125Z,511.88
2018-08-22T11:27:38.139Z,444.38
2018-08-22T11:28:38.150Z,495.00
2018-08-22T11:29:38.163Z,495.00
2018-08-22T11:30:38.175Z,461.25
2018-08-22T11:31:38.187Z,455.63
2018-08-22T11:32:38.200Z,433.13
2018-08-22T11:33:38.213Z,416.25
2018-08-22T11:34:38.225Z,433.13
2018-08-22T11:35:38.236Z,416.25
2018-08-22T11:36:38.248Z,410.63
2018-08-22T11:37:38.261Z,388.13
2018-08-22T11:38:38.272Z,399.38
2018-08-22T11:39:38.286Z,495.00
2018-08-22T11:40:38.298Z,506.25
2018-08-22T11:41:38.313Z,511.88
2018-08-22T11:42:38.320Z,511.88
2018-08-22T11:43:38.333Z,523.13
2018-08-22T11:44:38.346Z,540.00
2018-08-22T11:45:38.356Z,506.25
2018-08-22T11:46:38.371Z,540.00
2018-08-22T11:47:38.379Z,545.63
2018-08-22T11:48:38.391Z,523.13
2018-08-22T11:49:38.404Z,523.13
2018-08-22T11:50:38.414Z,534.38
2018-08-22T11:51:38.428Z,534.38
2018-08-22T11:52:38.439Z,523.13
2018-08-22T11:53:38.451Z,528.75
2018-08-22T11:54:38.462Z,523.13
2018-08-22T11:55:38.473Z,517.50
2018-08-22T11:56:38.486Z,500.63
2018-08-22T11:57:38.498Z,478.13
2018-08-22T11:58:38.510Z,461.25
2018-08-22T11:59:38.529Z,450.00
2018-08-22T12:00:38.532Z,405.00
2018-08-22T12:01:38.544Z,337.50
2018-08-22T12:02:38.554Z,326.25
2018-08-22T12:03:38.566Z,315.00
2018-08-22T12:04:38.579Z,393.75
2018-08-22T12:05:38.595Z,405.00
2018-08-22T12:06:38.600Z,365.63
2018-08-22T12:07:38.618Z,331.88
2018-08-22T12:08:38.625Z,399.38
2018-08-22T12:09:38.636Z,399.38
2018-08-22T12:10:38.698Z,393.75
2018-08-22T12:11:38.658Z,393.75
2018-08-22T12:12:38.669Z,393.75
2018-08-22T12:13:38.680Z,393.75
2018-08-22T12:14:38.692Z,393.75
2018-08-22T12:15:38.702Z,382.50
2018-08-22T12:16:38.713Z,399.38
2018-08-22T12:17:38.724Z,393.75
2018-08-22T12:18:38.735Z,382.50
2018-08-22T12:19:38.748Z,388.13
2018-08-22T12:20:38.758Z,388.13
2018-08-22T12:21:38.768Z,382.50
2018-08-22T12:22:38.778Z,376.88
2018-08-22T12:23:38.790Z,371.25
2018-08-22T12:24:38.802Z,365.63
2018-08-22T12:25:38.813Z,371.25
2018-08-22T12:26:38.823Z,376.88
2018-08-22T12:27:38.835Z,376.88
2018-08-22T12:28:38.845Z,382.50
2018-08-22T12:29:38.857Z,388.13
2018-08-22T12:30:38.867Z,393.75
2018-08-22T12:31:38.878Z,360.00
2018-08-22T12:32:38.889Z,354.38
2018-08-22T12:33:38.900Z,376.88
2018-08-22T12:34:38.909Z,393.75
2018-08-22T12:35:38.931Z,399.38
2018-08-22T12:36:38.932Z,405.00
2018-08-22T12:37:38.952Z,416.25
2018-08-22T12:38:38.953Z,433.13
2018-08-22T12:39:38.965Z,438.75
2018-08-22T12:40:38.974Z,438.75
2018-08-22T12:41:38.986Z,444.38
2018-08-22T12:42:38.995Z,433.13
2018-08-22T12:43:39.007Z,421.88